createdAt,value
2018-07-22T00:02:23.022Z,21.50
2018-07-22T00:04:51.345Z,22.40
2018-07-22T00:07:19.618Z,21.43
2018-07-22T00:09:48.067Z,24.43
2018-07-22T00:12:16.358Z,24.67
2018-07-22T00:14:44.814Z,22.30
2018-07-22T00:17:13.085Z,24.53
2018-07-22T00:19:41.411Z,26.07
2018-07-22T00:22:09.973Z,22.03
2018-07-22T00:24:38.234Z,28.77
2018-07-22T00:27:06.773Z,21.50
2018-07-22T00:29:35.092Z,24.30
2018-07-22T00:32:03.421Z,22.30
2018-07-22T00:34:31.750Z,25.43
2018-07-22T00:37:00.028Z,26.43
2018-07-22T00:39:28.857Z,23.70
2018-07-22T00:41:57.093Z,21.73
2018-07-22T00:44:25.389Z,25.57
2018-07-22T00:46:53.679Z,25.37
2018-07-22T00:49:21.972Z,23.77
2018-07-22T00:51:50.296Z,24.43
2018-07-22T00:54:18.554Z,25.57
2018-07-22T00:56:46.930Z,26.87
2018-07-22T00:59:15.211Z,24.43
2018-07-22T01:01:43.550Z,24.60
2018-07-22T01:04:11.795Z,25.60
2018-07-22T01:06:40.091Z,26.20
2018-07-22T01:09:09.954Z,27.53
2018-07-22T01:11:38.235Z,22.90
2018-07-22T01:14:06.493Z,28.70
2018-07-22T01:16:34.823Z,27.00
2018-07-22T01:19:03.258Z,25.83
2018-07-22T01:21:31.820Z,26.77
2018-07-22T01:24:00.315Z,29.13
2018-07-22T01:26:28.633Z,25.53
2018-07-22T01:28:56.868Z,27.70
2018-07-22T01:31:25.142Z,26.63
2018-07-22T01:33:53.367Z,26.43
2018-07-22T01:36:21.696Z,25.30
2018-07-22T01:38:49.952Z,28.10
2018-07-22T01:41:18.221Z,26.80
2018-07-22T01:43:46.518Z,26.93
2018-07-22T01:46:14.840Z,26.93
2018-07-22T01:48:43.123Z,27.37
2018-07-22T01:51:11.365Z,27.47
2018-07-22T01:53:39.817Z,27.53
2018-07-22T01:56:08.079Z,25.10
2018-07-22T01:58:36.344Z,27.03
2018-07-22T02:01:04.678Z,27.07
2018-07-22T02:03:33.578Z,25.37
2018-07-22T02:06:01.948Z,23.60
2018-07-22T02:08:30.252Z,26.23
2018-07-22T02:10:58.505Z,25.57
2018-07-22T02:13:26.856Z,26.43
2018-07-22T02:15:55.380Z,25.77
2018-07-22T02:18:23.625Z,26.13
2018-07-22T02:20:51.913Z,24.30
2018-07-22T02:23:20.193Z,24.70
2018-07-22T02:25:48.488Z,28.43
2018-07-22T02:28:16.746Z,26.93
2018-07-22T02:30:45.032Z,26.33
2018-07-22T02:33:13.590Z,26.60
2018-07-22T02:35:41.917Z,25.20
2018-07-22T02:38:10.185Z,23.67
2018-07-22T02:40:38.467Z,24.87
2018-07-22T02:43:06.774Z,24.50
2018-07-22T02:45:35.003Z,25.60
2018-07-22T02:48:03.273Z,26.67
2018-07-22T02:50:31.553Z,23.17
2018-07-22T02:52:59.829Z,24.73
2018-07-22T02:55:28.152Z,26.67
2018-07-22T02:57:56.505Z,27.40
2018-07-22T03:00:24.805Z,26.47
2018-07-22T03:02:53.050Z,24.83
2018-07-22T03:05:21.381Z,26.80
2018-07-22T03:07:49.637Z,26.57
2018-07-22T03:10:17.900Z,28.27
2018-07-22T03:12:46.193Z,25.53
2018-07-22T03:15:14.643Z,28.17
2018-07-22T03:17:42.899Z,28.17
2018-07-22T03:20:11.269Z,27.97
2018-07-22T03:22:39.558Z,26.40
2018-07-22T03:25:07.834Z,31.70
2018-07-22T03:27:36.103Z,24.83
2018-07-22T03:30:04.900Z,26.20
2018-07-22T03:32:33.198Z,32.53
2018-07-22T03:35:01.617Z,29.47
2018-07-22T03:37:29.933Z,26.83
2018-07-22T03:39:58.257Z,26.40
2018-07-22T03:42:26.534Z,26.10
2018-07-22T03:44:54.793Z,29.07
2018-07-22T03:47:23.136Z,28.13
2018-07-22T03:49:51.403Z,29.67
2018-07-22T03:52:19.654Z,30.10
2018-07-22T03:54:47.961Z,25.40
2018-07-22T03:57:16.289Z,27.77
2018-07-22T03:59:44.581Z,31.67
2018-07-22T04:02:12.873Z,28.03
2018-07-22T04:04:41.151Z,24.90
2018-07-22T04:07:09.442Z,29.40
2018-07-22T04:09:39.685Z,29.37
2018-07-22T04:12:07.986Z,26.03
2018-07-22T04:14:36.620Z,27.60
2018-07-22T04:17:04.951Z,27.67
2018-07-22T04:19:33.320Z,26.80
2018-07-22T04:22:01.593Z,24.30
2018-07-22T04:24:43.592Z,27.27
2018-07-22T04:27:11.864Z,24.67
2018-07-22T04:29:40.116Z,22.37
2018-07-22T04:32:08.396Z,24.00
2018-07-22T04:34:36.664Z,23.77
2018-07-22T04:37:04.977Z,22.10
2018-07-22T04:39:33.266Z,24.30
2018-07-22T04:42:01.500Z,25.53
2018-07-22T04:44:29.774Z,24.10
2018-07-22T04:46:58.106Z,20.93
2018-07-22T04:49:26.388Z,22.77
2018-07-22T04:51:54.832Z,26.93
2018-07-22T04:54:23.163Z,26.27
2018-07-22T04:56:51.621Z,22.70
2018-07-22T04:59:19.903Z,25.77
2018-07-22T05:01:48.179Z,23.67
2018-07-22T05:04:16.487Z,23.73
2018-07-22T05:06:44.729Z,23.90
2018-07-22T05:09:13.512Z,21.93
2018-07-22T05:11:42.145Z,23.60
2018-07-22T05:14:10.462Z,23.80
2018-07-22T05:16:38.793Z,23.50
2018-07-22T05:19:07.456Z,25.50
2018-07-22T05:21:35.954Z,20.07
2018-07-22T05:24:04.362Z,21.07
2018-07-22T05:26:32.716Z,22.30
2018-07-22T05:29:01.011Z,22.23
2018-07-22T05:31:29.301Z,19.57
2018-07-22T05:33:57.596Z,21.47
2018-07-22T05:36:25.893Z,19.77
2018-07-22T05:38:54.137Z,20.00
2018-07-22T05:41:22.417Z,17.87
2018-07-22T05:43:50.998Z,20.03
2018-07-22T05:46:19.275Z,18.53
2018-07-22T05:48:47.579Z,19.03
2018-07-22T05:51:15.868Z,17.50
2018-07-22T05:53:44.248Z,18.50
2018-07-22T05:56:12.524Z,17.87
2018-07-22T05:58:40.844Z,16.67
2018-07-22T06:01:09.146Z,17.53
2018-07-22T06:03:38.348Z,15.70
2018-07-22T06:06:06.620Z,16.23
2018-07-22T06:08:34.907Z,16.60
2018-07-22T06:11:03.177Z,18.73
2018-07-22T06:13:31.468Z,15.40
2018-07-22T06:15:59.762Z,13.37
2018-07-22T06:18:28.134Z,15.87
2018-07-22T06:20:56.409Z,14.53
2018-07-22T06:23:24.757Z,17.10
2018-07-22T06:25:53.068Z,13.03
2018-07-22T06:28:21.358Z,12.43
2018-07-22T06:30:49.615Z,16.00
2018-07-22T06:33:18.128Z,14.27
2018-07-22T06:35:46.457Z,15.40
2018-07-22T06:38:14.732Z,12.70
2018-07-22T06:40:43.001Z,14.00
2018-07-22T06:43:11.288Z,14.10
2018-07-22T06:45:39.555Z,13.57
2018-07-22T06:48:07.803Z,15.23
2018-07-22T06:50:36.100Z,12.00
2018-07-22T06:53:04.355Z,11.17
2018-07-22T06:55:32.625Z,12.27
2018-07-22T06:58:00.961Z,11.57
2018-07-22T07:00:29.225Z,10.70
2018-07-22T07:02:57.593Z,9.80
2018-07-22T07:05:25.938Z,10.37
2018-07-22T07:07:54.240Z,10.63
2018-07-22T07:10:22.571Z,10.10
2018-07-22T07:12:50.872Z,10.17
2018-07-22T07:15:19.176Z,9.53
2018-07-22T07:17:47.440Z,9.50
2018-07-22T07:20:15.778Z,11.70
2018-07-22T07:22:44.156Z,10.10
2018-07-22T07:25:12.513Z,8.73
2018-07-22T07:27:40.906Z,8.73
2018-07-22T07:30:09.222Z,9.77
2018-07-22T07:32:37.790Z,9.17
2018-07-22T07:35:06.225Z,10.43
2018-07-22T07:37:34.538Z,10.40
2018-07-22T07:40:02.895Z,11.03
2018-07-22T07:42:31.177Z,11.43
2018-07-22T07:44:59.583Z,11.57
2018-07-22T07:47:27.821Z,10.03
2018-07-22T07:49:56.116Z,9.70
2018-07-22T07:52:24.509Z,10.67
2018-07-22T07:54:53.786Z,11.57
2018-07-22T07:57:22.050Z,10.37
2018-07-22T07:59:53.224Z,11.37
2018-07-22T08:02:22.641Z,10.37
2018-07-22T08:04:50.905Z,10.60
2018-07-22T08:07:19.205Z,10.23
2018-07-22T08:09:47.712Z,14.33
2018-07-22T08:12:16.307Z,11.23
2018-07-22T08:14:45.026Z,10.47
2018-07-22T08:17:13.432Z,11.27
2018-07-22T08:19:41.776Z,11.17
2018-07-22T08:22:10.133Z,11.80
2018-07-22T08:24:38.570Z,12.10
2018-07-22T08:27:06.927Z,11.37
2018-07-22T08:29:35.849Z,12.77
2018-07-22T08:32:05.546Z,14.03
2018-07-22T08:34:35.269Z,13.13
2018-07-22T08:37:03.848Z,13.63
2018-07-22T08:39:33.112Z,12.77
2018-07-22T08:42:02.000Z,13.60
2018-07-22T08:44:30.327Z,12.27
2018-07-22T08:46:58.607Z,12.70
2018-07-22T08:49:27.302Z,12.60
2018-07-22T08:51:55.571Z,11.83
2018-07-22T08:54:24.098Z,12.63
2018-07-22T08:56:52.398Z,12.50
2018-07-22T08:59:21.281Z,12.93
2018-07-22T09:01:49.584Z,11.50
2018-07-22T09:04:18.059Z,12.13
2018-07-22T09:06:46.329Z,11.87
2018-07-22T09:09:14.760Z,13.20
2018-07-22T09:11:43.237Z,11.40
2018-07-22T09:14:11.566Z,12.33
2018-07-22T09:16:39.851Z,11.23
2018-07-22T09:19:08.276Z,13.53
2018-07-22T09:21:36.875Z,14.10
2018-07-22T09:24:05.206Z,12.67
2018-07-22T09:26:33.711Z,11.70
2018-07-22T09:29:01.970Z,13.63
2018-07-22T09:31:30.317Z,11.63
2018-07-22T09:33:58.851Z,11.93
2018-07-22T09:36:27.161Z,9.90
2018-07-22T09:38:55.479Z,10.97
2018-07-22T09:41:23.849Z,11.30
2018-07-22T09:43:52.129Z,11.20
2018-07-22T09:46:20.387Z,10.53
2018-07-22T09:51:46.249Z,10.23
2018-07-22T09:54:14.568Z,9.10
2018-07-22T09:56:42.824Z,9.17
2018-07-22T09:59:11.128Z,12.80
2018-07-22T10:01:39.463Z,12.23
2018-07-22T10:04:07.811Z,8.87
2018-07-22T10:06:36.030Z,8.70
2018-07-22T10:09:06.174Z,9.83
2018-07-22T10:11:34.546Z,8.10
2018-07-22T10:14:02.889Z,10.00
2018-07-22T10:16:31.216Z,7.73
2018-07-22T10:18:59.527Z,9.40
2018-07-22T10:21:27.771Z,12.37
2018-07-22T10:23:56.095Z,10.33
2018-07-22T10:26:24.391Z,8.23
2018-07-22T10:28:53.244Z,8.47
2018-07-22T10:31:21.508Z,8.57
2018-07-22T10:33:49.780Z,10.07
2018-07-22T10:36:18.071Z,8.37
2018-07-22T10:38:46.355Z,8.30
2018-07-22T10:41:14.620Z,10.30
2018-07-22T10:43:42.901Z,7.83
2018-07-22T10:46:11.240Z,9.27
2018-07-22T10:48:39.525Z,7.73
2018-07-22T10:51:08.459Z,8.63
2018-07-22T10:53:36.808Z,8.67
2018-07-22T10:56:05.519Z,8.53
2018-07-22T10:58:34.373Z,7.03
2018-07-22T11:01:02.778Z,8.10
2018-07-22T11:03:31.261Z,8.30
2018-07-22T11:05:59.541Z,8.07
2018-07-22T11:08:28.124Z,8.70
2018-07-22T11:10:56.455Z,9.10
2018-07-22T11:13:24.796Z,10.10
2018-07-22T11:15:53.097Z,10.77
2018-07-22T11:18:21.384Z,9.40
2018-07-22T11:20:49.723Z,9.63
2018-07-22T11:23:18.054Z,8.37
2018-07-22T11:25:46.372Z,8.67
2018-07-22T11:28:14.710Z,9.00
2018-07-22T11:30:43.028Z,8.90
2018-07-22T11:33:11.540Z,8.93
2018-07-22T11:35:40.004Z,7.50
2018-07-22T11:38:08.405Z,9.20
2018-07-22T11:40:36.701Z,7.90
2018-07-22T11:43:04.992Z,8.20
2018-07-22T11:45:33.373Z,7.57
2018-07-22T11:48:01.633Z,8.47
2018-07-22T11:50:29.946Z,7.00
2018-07-22T11:52:58.186Z,8.53
2018-07-22T11:55:26.600Z,7.30
2018-07-22T11:57:54.871Z,8.40
2018-07-22T12:00:23.123Z,8.43
2018-07-22T12:02:51.472Z,7.33
2018-07-22T12:05:19.816Z,9.30
2018-07-22T12:07:48.125Z,7.17
2018-07-22T12:10:16.374Z,7.17
2018-07-22T12:12:44.655Z,6.87
2018-07-22T12:15:12.944Z,7.47
2018-07-22T12:17:41.196Z,7.63
2018-07-22T12:20:09.512Z,6.80
2018-07-22T12:22:37.777Z,8.33
2018-07-22T12:25:06.324Z,7.60
2018-07-22T12:27:34.634Z,6.90
2018-07-22T12:30:02.898Z,11.70
2018-07-22T12:32:31.192Z,7.00
2018-07-22T12:34:59.452Z,7.03
2018-07-22T12:37:27.761Z,8.90
2018-07-22T12:39:56.033Z,7.20
2018-07-22T12:42:24.298Z,8.20
2018-07-22T12:44:52.685Z,7.87
2018-07-22T12:47:20.990Z,8.97
2018-07-22T12:49:49.332Z,9.33
2018-07-22T12:52:17.638Z,7.27
2018-07-22T12:54:46.045Z,7.80
2018-07-22T12:57:15.508Z,8.00
2018-07-22T12:59:44.067Z,7.40
2018-07-22T13:02:12.915Z,8.83
2018-07-22T13:04:41.162Z,7.27
2018-07-22T13:07:09.865Z,7.00
2018-07-22T13:09:38.138Z,7.23
2018-07-22T13:12:06.546Z,7.33
2018-07-22T13:14:34.834Z,7.43
2018-07-22T13:17:03.185Z,6.93
2018-07-22T13:19:31.465Z,7.63
2018-07-22T13:21:59.716Z,7.40
2018-07-22T13:24:28.020Z,7.70
2018-07-22T13:26:56.444Z,9.53
2018-07-22T13:29:24.816Z,8.83
2018-07-22T13:31:53.114Z,7.60
2018-07-22T13:34:21.388Z,7.80
2018-07-22T13:36:49.829Z,7.70
2018-07-22T13:39:18.107Z,8.20
2018-07-22T13:41:46.469Z,9.30
2018-07-22T13:44:14.751Z,7.53
2018-07-22T13:46:43.043Z,9.27
2018-07-22T13:49:11.351Z,7.87
2018-07-22T13:51:39.660Z,10.30
2018-07-22T13:54:08.034Z,7.80
2018-07-22T13:56:36.274Z,7.63
2018-07-22T13:59:04.556Z,8.43
2018-07-22T14:01:32.905Z,7.93
2018-07-22T14:04:01.304Z,8.03
2018-07-22T14:06:29.633Z,8.17
2018-07-22T14:08:57.895Z,8.60
2018-07-22T14:11:26.195Z,8.00
2018-07-22T14:13:54.737Z,9.20
2018-07-22T14:16:23.067Z,9.07
2018-07-22T14:18:51.497Z,8.00
2018-07-22T14:21:20.119Z,7.97
2018-07-22T14:23:48.386Z,8.20
2018-07-22T14:26:16.655Z,7.47
2018-07-22T14:28:44.995Z,9.53
2018-07-22T14:31:13.250Z,10.13
2018-07-22T14:33:41.516Z,8.67
2018-07-22T14:36:09.806Z,8.43
2018-07-22T14:38:38.096Z,8.90
2018-07-22T14:41:06.725Z,8.00
2018-07-22T14:43:34.868Z,7.97
2018-07-22T14:46:03.207Z,7.87
2018-07-22T14:48:31.568Z,7.53
2018-07-22T14:50:59.866Z,9.47
2018-07-22T14:53:28.285Z,8.60
2018-07-22T14:55:56.761Z,7.73
2018-07-22T14:58:25.254Z,8.27
2018-07-22T15:00:53.542Z,9.37
2018-07-22T15:03:22.013Z,9.87
2018-07-22T15:05:50.344Z,8.13
2018-07-22T15:08:18.684Z,7.60
2018-07-22T15:10:46.930Z,9.23
2018-07-22T15:13:15.400Z,7.43
2018-07-22T15:15:43.723Z,8.57
2018-07-22T15:18:12.184Z,8.17
2018-07-22T15:20:40.521Z,7.67
2018-07-22T15:23:08.826Z,6.90
2018-07-22T15:25:37.174Z,7.70
2018-07-22T15:28:05.526Z,9.40
2018-07-22T15:30:33.810Z,7.53
2018-07-22T15:33:02.074Z,7.67
2018-07-22T15:35:30.454Z,7.83
2018-07-22T15:37:58.737Z,6.87
2018-07-22T15:40:27.153Z,7.30
2018-07-22T15:42:55.519Z,7.90
2018-07-22T15:45:23.857Z,12.53
2018-07-22T15:47:52.371Z,8.23
2018-07-22T15:50:20.653Z,7.97
2018-07-22T15:52:48.957Z,7.93
2018-07-22T15:55:17.295Z,9.20
2018-07-22T15:57:45.484Z,7.60
2018-07-22T16:00:13.818Z,7.77
2018-07-22T16:02:42.147Z,7.57
2018-07-22T16:05:10.665Z,12.10
2018-07-22T16:07:39.244Z,8.83
2018-07-22T16:10:08.072Z,7.80
2018-07-22T16:12:36.324Z,8.70
2018-07-22T16:15:05.303Z,7.63
2018-07-22T16:17:34.549Z,8.30
2018-07-22T16:20:03.085Z,8.63
2018-07-22T16:22:31.616Z,8.03
2018-07-22T16:24:59.894Z,8.63
2018-07-22T16:27:28.204Z,9.83
2018-07-22T16:29:56.602Z,9.03
2018-07-22T16:32:24.923Z,8.63
2018-07-22T16:34:53.390Z,8.57
2018-07-22T16:37:21.815Z,11.10
2018-07-22T16:39:50.096Z,8.23
2018-07-22T16:42:18.441Z,12.37
2018-07-22T16:44:46.735Z,8.37
2018-07-22T16:47:15.011Z,7.57
2018-07-22T16:49:43.490Z,9.33
2018-07-22T16:52:11.747Z,8.33
2018-07-22T16:54:40.027Z,8.17
2018-07-22T16:57:08.592Z,7.80
2018-07-22T16:59:36.852Z,8.00
2018-07-22T17:02:05.268Z,7.60
2018-07-22T17:06:55.265Z,9.97
2018-07-22T17:09:23.630Z,8.67
2018-07-22T17:11:51.969Z,8.30
2018-07-22T17:14:20.297Z,8.57
2018-07-22T17:16:48.952Z,8.13
2018-07-22T17:19:17.292Z,8.63
2018-07-22T17:21:45.536Z,8.30
2018-07-22T17:24:14.780Z,8.47
2018-07-22T17:26:43.136Z,7.83
2018-07-22T17:29:11.446Z,9.53
2018-07-22T17:31:40.243Z,8.10
2018-07-22T17:34:08.653Z,8.40
2018-07-22T17:36:36.975Z,10.27
2018-07-22T17:39:08.056Z,9.03
2018-07-22T17:41:36.408Z,9.63
2018-07-22T17:44:04.736Z,13.90
2018-07-22T17:46:33.104Z,8.87
2018-07-22T17:49:01.478Z,11.17
2018-07-22T17:51:29.767Z,9.27
2018-07-22T17:53:58.120Z,8.40
2018-07-22T17:56:26.528Z,8.23
2018-07-22T17:58:54.823Z,8.80
2018-07-22T18:01:23.133Z,8.40
2018-07-22T18:03:51.626Z,10.80
2018-07-22T18:06:19.994Z,9.43
2018-07-22T18:08:48.310Z,8.20
2018-07-22T18:11:16.642Z,8.30
2018-07-22T18:13:45.018Z,8.00
2018-07-22T18:16:13.280Z,8.73
2018-07-22T18:18:41.610Z,8.43
2018-07-22T18:21:09.938Z,9.17
2018-07-22T18:23:38.242Z,8.87
2018-07-22T18:26:07.189Z,9.33
2018-07-22T18:28:35.473Z,9.90
2018-07-22T18:31:03.804Z,9.87
2018-07-22T18:33:32.059Z,8.63
2018-07-22T18:36:00.320Z,9.73
2018-07-22T18:38:28.910Z,7.70
2018-07-22T18:40:57.188Z,8.47
2018-07-22T18:43:25.484Z,8.67
2018-07-22T18:45:53.726Z,9.43
2018-07-22T18:48:22.779Z,8.30
2018-07-22T18:50:51.268Z,9.53
2018-07-22T18:53:19.735Z,8.37
2018-07-22T18:55:48.044Z,9.13
2018-07-22T18:58:16.345Z,8.63
2018-07-22T19:00:44.608Z,9.13
2018-07-22T19:03:13.045Z,8.57
2018-07-22T19:05:41.341Z,9.93
2018-07-22T19:08:11.290Z,9.00
2018-07-22T19:10:39.657Z,12.40
2018-07-22T19:13:07.997Z,11.57
2018-07-22T19:15:36.284Z,9.60
2018-07-22T19:18:06.434Z,11.70
2018-07-22T19:20:41.722Z,9.47
2018-07-22T19:23:09.992Z,9.27
2018-07-22T19:25:38.420Z,11.87
2018-07-22T19:28:06.711Z,11.43
2018-07-22T19:30:35.688Z,10.40
2018-07-22T19:33:03.941Z,9.40
2018-07-22T19:35:32.256Z,9.77
2018-07-22T19:38:00.562Z,10.03
2018-07-22T19:40:28.880Z,9.63
2018-07-22T19:42:57.349Z,10.30
2018-07-22T19:45:25.603Z,12.57
2018-07-22T19:47:53.866Z,9.63
2018-07-22T19:50:22.218Z,11.57
2018-07-22T19:52:50.482Z,11.27
2018-07-22T19:55:18.722Z,9.93
2018-07-22T19:57:47.304Z,10.40
2018-07-22T20:00:15.717Z,9.67
2018-07-22T20:02:44.039Z,10.77
2018-07-22T20:05:12.404Z,9.03
2018-07-22T20:07:40.693Z,9.53
2018-07-22T20:10:09.052Z,10.10
2018-07-22T20:12:37.382Z,11.50
2018-07-22T20:15:05.632Z,10.60
2018-07-22T20:17:33.993Z,12.13
2018-07-22T20:20:02.312Z,10.00
2018-07-22T20:22:30.662Z,13.10
2018-07-22T20:24:58.932Z,12.00
2018-07-22T20:27:27.260Z,11.33
2018-07-22T20:29:55.543Z,11.33
2018-07-22T20:32:23.921Z,11.43
2018-07-22T20:34:52.304Z,12.00
2018-07-22T20:37:20.654Z,11.63
2018-07-22T20:39:48.943Z,11.43
2018-07-22T20:42:17.437Z,12.47
2018-07-22T20:44:45.746Z,11.37
2018-07-22T20:47:14.103Z,13.30
2018-07-22T20:49:42.354Z,12.60
2018-07-22T20:52:10.709Z,11.90
2018-07-22T20:54:38.991Z,11.83
2018-07-22T20:57:07.272Z,12.07
2018-07-22T20:59:35.568Z,13.80
2018-07-22T21:02:03.959Z,12.23
2018-07-22T21:04:32.264Z,11.97
2018-07-22T21:07:00.602Z,14.23
2018-07-22T21:09:28.869Z,13.87
2018-07-22T21:13:08.887Z,12.07
2018-07-22T21:15:37.184Z,11.27
2018-07-22T21:18:05.537Z,9.73
2018-07-22T21:20:33.829Z,8.47
2018-07-22T21:23:02.109Z,8.93
2018-07-22T21:25:30.421Z,7.17
2018-07-22T21:27:58.683Z,9.77
2018-07-22T21:30:26.931Z,8.10
2018-07-22T21:32:55.417Z,7.70
2018-07-22T21:35:23.799Z,7.37
2018-07-22T21:37:52.050Z,7.90
2018-07-22T21:40:20.383Z,9.07
2018-07-22T21:42:48.645Z,7.40
2018-07-22T21:45:16.902Z,7.27
2018-07-22T21:47:45.181Z,10.63
2018-07-22T21:50:13.520Z,7.63
2018-07-22T21:52:41.825Z,7.13
2018-07-22T21:55:10.110Z,8.10
2018-07-22T21:57:38.508Z,7.83
2018-07-22T22:00:24.114Z,7.13
2018-07-22T22:02:52.391Z,7.90
2018-07-22T22:05:20.753Z,7.63
2018-07-22T22:07:49.049Z,8.17
2018-07-22T22:10:17.691Z,8.43
2018-07-22T22:12:45.952Z,8.00
2018-07-22T22:15:22.980Z,8.87
2018-07-22T22:17:51.272Z,8.90
2018-07-22T22:20:19.602Z,8.37
2018-07-22T22:22:48.316Z,9.13
2018-07-22T22:25:16.605Z,8.43
2018-07-22T22:27:45.127Z,7.93
2018-07-22T22:30:15.050Z,8.33
2018-07-22T22:32:44.000Z,8.53
2018-07-22T22:35:12.331Z,9.07
2018-07-22T22:37:41.551Z,9.40
2018-07-22T22:40:09.977Z,8.93
2018-07-22T22:42:38.267Z,9.87
2018-07-22T22:45:06.650Z,8.97
2018-07-22T22:47:34.910Z,9.40
2018-07-22T22:50:03.207Z,9.63
2018-07-22T22:52:31.604Z,9.57
2018-07-22T22:54:59.860Z,9.73
2018-07-22T22:57:28.147Z,8.73
2018-07-22T22:59:56.429Z,8.63
2018-07-22T23:02:29.479Z,8.00
2018-07-22T23:04:57.812Z,9.40
2018-07-22T23:07:26.091Z,9.23
2018-07-22T23:09:54.325Z,10.87
2018-07-22T23:12:22.612Z,9.00
2018-07-22T23:14:50.868Z,9.00
2018-07-22T23:17:19.181Z,9.80
2018-07-22T23:19:47.472Z,9.27
2018-07-22T23:22:15.967Z,10.00
2018-07-22T23:24:44.237Z,9.20
2018-07-22T23:27:12.483Z,10.03
2018-07-22T23:29:40.829Z,9.10
2018-07-22T23:32:09.084Z,10.87
2018-07-22T23:34:38.146Z,12.57
2018-07-22T23:37:06.781Z,12.27
2018-07-22T23:39:35.086Z,10.80
2018-07-22T23:42:03.447Z,11.00
2018-07-22T23:44:32.064Z,11.80
2018-07-22T23:47:00.329Z,10.20
2018-07-22T23:49:28.574Z,10.47
2018-07-22T23:51:56.902Z,11.67
2018-07-22T23:54:25.374Z,10.17
2018-07-22T23:56:53.729Z,10.23
2018-07-22T23:59:22.187Z,11.90
